To NAV CANADA Home Page Login to a new session Search on AWWS site Disclaimer Vers la page française équivalente Tips FAQ What's new on the site To the Forecasts and Observations / NOTAM section To "File a Flight Plan" website Publications and other links Update of the User's profile FIC Telephone Numbers My Weather Data Folder Route Weather Data Regional Weather Data Local Weather Data To the Forecasts and Observations / NOTAM section
Request Generated 03/19/2019 at 23:23:46 UTC . Weather information available at that time is displayed.

METAR/TAF

ULUKHAKTOK/HOLMAN/NT    

SPECI CYHI 192308Z 11009KT 3SM -SN BR OVC004 M15/M17 A2968 RMK SN4SC4 VIS W 6 SLP059=
METAR CYHI 192300Z 11008KT 3SM -SN OVC005 M15/M17 A2969 RMK SN4SC4 VIS W 6 SLP060=
SPECI CYHI 192212Z 11009KT 6SM -SN OVC005 M16/M17 A2971 RMK SN3SC5 VIS N 3 SLP068=
METAR CYHI 192200Z 11009KT 3SM -SN OVC004 M16/M17 A2972 RMK SN4SC4 CIG W STTN HGHR ESTD 5 / VIS W 6 SLP070=
SPECI CYHI 192127Z 12011KT 3SM -SN OVC003 M15/M17 A2972 RMK SN5SC3 VIS W 6 / E 6 SLP071=
SPECI CYHI 192109Z 11011KT 2 1/2SM -SN OVC003 M15/M17 A2971 RMK SN5SC3 VIS N 1 / W 8 SLP069=
METAR CYHI 192100Z 11011KT 2 1/2SM -SN OVC005 M15/M17 A2972 RMK SN4SC4 VIS N 1 / W 5 SLP070=

TAF AMD CYHI 192219Z 1922/1924 11010KT 6SM -SN OVC005 TEMPO 1922/1924
1SM BR OVC003
RMK NXT FCST WILL BE ISSUED AT 201545Z=
Your time UTC time
Weather data provided by Environment Canada and NAV CANADA